Time;durP1;ratioP1;P1;durP2;ratioP2;P2;SDS_P1;SDS_P2;PMS_P1;PMS_P2;Temp;Humidity;BMP_temperature;BMP_pressure;BME280_temperature;BME280_humidity;BME280_pressure;Samples;Min_cycle;Max_cycle;Signal;HPM_P1;HPM_P2
2023/06/12 00:00:21;;;;;;;;;;;;;;;-146.25;62.08;51934.31;2064262;28;20032;-70
2023/06/12 00:01:23;;;;;;;;;;;;;;;-146.25;61.80;51897.81;2063858;28;29869;-70
2023/06/12 00:02:25;;;;;;;;;;;;;;;-146.25;62.03;51930.25;2063673;28;20711;-70
2023/06/12 00:03:27;;;;;;;;;;;;;;;-146.25;62.27;51924.19;2063987;28;35067;-71
2023/06/12 00:04:29;;;;;;;;;;;;;;;-146.25;62.20;51918.09;2068760;28;38826;-71
2023/06/12 00:05:32;;;;;;;;;;;;;;;-146.25;62.35;51932.28;2064525;28;31520;-71
2023/06/12 00:06:35;;;;;;;;;;;;;;;-146.25;62.94;51918.09;2063667;28;34653;-71
2023/06/12 00:07:37;;;;;;;;;;;;;;;-146.25;62.83;51926.22;2064340;28;35747;-70
2023/06/12 00:08:42;;;;;;;;;;;;;;;-146.25;62.43;51910.00;2064499;28;20048;-70
2023/06/12 00:09:43;;;;;;;;;;;;;;;-146.25;62.36;51924.19;2064004;28;40681;-71
2023/06/12 00:10:46;;;;;;;;;;;;;;;-146.25;62.56;51936.34;2063896;28;32086;-70
2023/06/12 00:11:48;;;;;;;;;;;;;;;-146.25;63.13;51895.78;2064146;28;34433;-70
2023/06/12 00:12:50;;;;;;;;;;;;;;;-146.25;63.24;51932.28;2063899;28;38336;-70
2023/06/12 00:13:54;;;;;;;;;;;;;;;-146.25;63.72;51918.09;2064564;28;19918;-70
2023/06/12 00:14:55;;;;;;;;;;;;;;;-146.25;64.05;51910.00;2063440;28;39513;-70
2023/06/12 00:15:57;;;;;;;;;;;;;;;-146.25;64.00;51934.31;2064103;28;35025;-70
2023/06/12 00:16:58;;;;;;;;;;;;;;;-146.25;63.96;51907.97;2064789;28;19928;-70
2023/06/12 00:18:01;;;;;;;;;;;;;;;-146.25;64.27;51914.03;2064042;28;34955;-71
2023/06/12 00:19:03;;;;;;;;;;;;;;;-146.25;63.91;51916.06;2064198;28;34567;-70
2023/06/12 00:20:06;;;;;;;;;;;;;;;-146.25;64.36;51938.38;2064680;28;19929;-70
2023/06/12 00:21:09;;;;;;;;;;;;;;;-146.25;64.54;51926.22;2064050;28;36341;-70
2023/06/12 00:22:11;;;;;;;;;;;;;;;-146.25;64.62;51946.47;2063196;28;24874;-70
2023/06/12 00:23:13;;;;;;;;;;;;;;;-146.25;65.04;51958.66;2063389;28;35273;-70
2023/06/12 00:24:14;;;;;;;;;;;;;;;-146.25;64.87;51924.19;2059486;28;39516;-70
2023/06/12 00:25:16;;;;;;;;;;;;;;;-146.25;64.73;51960.66;2063883;28;34643;-70
2023/06/12 00:26:17;;;;;;;;;;;;;;;-146.25;65.31;51938.38;2071651;28;32987;-70
2023/06/12 00:27:20;;;;;;;;;;;;;;;-146.25;65.61;51938.38;2063948;28;19921;-70
2023/06/12 00:28:21;;;;;;;;;;;;;;;-146.25;65.46;51948.50;2055708;28;19992;-70
2023/06/12 00:29:23;;;;;;;;;;;;;;;-146.25;65.13;51946.47;2055560;28;29500;-71
2023/06/12 00:30:27;;;;;;;;;;;;;;;-146.25;65.78;51970.81;2060442;28;29830;-71
2023/06/12 00:31:29;;;;;;;;;;;;;;;-146.25;65.81;51926.22;2063899;28;19922;-70
2023/06/12 00:32:31;;;;;;;;;;;;;;;-146.25;66.25;51922.16;2071513;28;25816;-70
2023/06/12 00:33:33;;;;;;;;;;;;;;;-146.25;66.00;51920.13;2063625;28;20004;-70
2023/06/12 00:34:37;;;;;;;;;;;;;;;-146.25;65.99;51914.03;2063158;28;19980;-70
2023/06/12 00:35:39;;;;;;;;;;;;;;;-146.25;66.63;51936.34;2056569;28;19929;-71
2023/06/12 00:36:42;;;;;;;;;;;;;;;-146.25;66.85;51950.53;2063010;28;30713;-70
2023/06/12 00:37:46;;;;;;;;;;;;;;;-146.25;66.99;51958.66;2063938;28;31633;-70
2023/06/12 00:38:48;;;;;;;;;;;;;;;-146.25;66.73;51948.50;2064587;28;20040;-70
2023/06/12 00:39:53;;;;;;;;;;;;;;;-146.25;66.86;51920.13;2071029;28;20016;-71
2023/06/12 00:40:55;;;;;;;;;;;;;;;-146.25;66.81;51940.41;2055898;28;19970;-70
2023/06/12 00:41:56;;;;;;;;;;;;;;;-146.25;67.64;51962.69;2055608;28;27539;-70
2023/06/12 00:42:58;;;;;;;;;;;;;;;-146.25;67.52;51944.44;2063519;28;30534;-70
2023/06/12 00:44:02;;;;;;;;;;;;;;;-146.25;68.29;51932.28;2064182;28;19922;-70
2023/06/12 00:45:05;;;;;;;;;;;;;;;-146.25;68.07;51942.44;2064489;28;20017;-70
2023/06/12 00:46:06;;;;;;;;;;;;;;;-146.25;68.51;51944.44;2071002;28;35306;-70
2023/06/12 00:47:10;;;;;;;;;;;;;;;-146.25;68.12;51934.31;2072289;28;20142;-70
2023/06/12 00:48:13;;;;;;;;;;;;;;;-146.25;68.40;51910.00;2064398;28;21477;-70
2023/06/12 00:49:14;;;;;;;;;;;;;;;-146.25;69.00;51938.38;2063268;28;28899;-70
2023/06/12 00:50:17;;;;;;;;;;;;;;;-146.25;68.98;51910.00;2062647;28;35066;-70
2023/06/12 00:51:20;;;;;;;;;;;;;;;-146.25;68.88;51954.59;2063593;28;26122;-70
2023/06/12 00:52:26;;;;;;;;;;;;;;;-146.25;68.92;51926.22;2064428;28;19922;-70
2023/06/12 00:53:27;;;;;;;;;;;;;;;-146.25;69.86;51938.38;2071649;28;23492;-70
2023/06/12 00:54:31;;;;;;;;;;;;;;;-146.25;69.46;51954.59;2071230;28;19930;-70
2023/06/12 00:55:35;;;;;;;;;;;;;;;-146.25;70.08;51948.50;2063171;28;35892;-70
2023/06/12 00:56:36;;;;;;;;;;;;;;;-146.25;70.04;51940.41;2062994;28;26120;-70
2023/06/12 00:57:38;;;;;;;;;;;;;;;-146.25;69.86;51950.53;2056058;28;31759;-70
2023/06/12 00:58:42;;;;;;;;;;;;;;;-146.25;70.87;51964.72;2070215;28;36026;-70
2023/06/12 00:59:44;;;;;;;;;;;;;;;-146.25;70.08;51958.66;2063414;28;30973;-70
2023/06/12 01:00:48;;;;;;;;;;;;;;;-146.25;70.32;51938.38;2063600;28;20040;-70
2023/06/12 01:01:53;;;;;;;;;;;;;;;-146.25;71.19;51978.91;2063338;28;21906;-69
2023/06/12 01:03:03;;;;;;;;;;;;;;;-146.25;71.55;51964.72;2063474;28;19922;-70
2023/06/12 01:04:09;;;;;;;;;;;;;;;-146.25;71.15;51970.81;2064558;28;35460;-70
2023/06/12 01:05:19;;;;;;;;;;;;;;;-146.25;71.24;51946.47;2063652;28;20264;-69
2023/06/12 01:06:33;;;;;;;;;;;;;;;-146.25;71.58;51966.75;2063633;28;19926;-70
2023/06/12 01:07:45;;;;;;;;;;;;;;;-146.25;72.32;51956.63;2055412;28;19915;-68
2023/06/12 01:09:03;;;;;;;;;;;;;;;-146.25;72.72;51948.50;2056968;28;19922;-70
2023/06/12 01:10:24;;;;;;;;;;;;;;;-146.25;72.97;51942.44;2064473;28;20076;-70
2023/06/12 01:11:27;;;;;;;;;;;;;;;-146.25;72.38;51952.56;2063943;28;19965;-69
2023/06/12 01:12:29;;;;;;;;;;;;;;;-146.25;72.91;51950.53;2063265;28;28841;-69
2023/06/12 01:13:33;;;;;;;;;;;;;;;-146.25;73.34;51946.47;2060027;28;20072;-70
2023/06/12 01:14:37;;;;;;;;;;;;;;;-146.25;73.02;51982.97;2063564;28;19922;-70
2023/06/12 01:15:40;;;;;;;;;;;;;;;-146.25;73.43;51928.22;2064134;28;20687;-69
2023/06/12 01:16:41;;;;;;;;;;;;;;;-146.25;73.52;51946.47;2071547;28;24729;-69
2023/06/12 01:17:43;;;;;;;;;;;;;;;-146.25;73.15;51948.50;2055435;28;19953;-70
2023/06/12 01:18:49;;;;;;;;;;;;;;;-146.25;73.75;51914.03;2063467;28;24003;-70
2023/06/12 01:19:56;;;;;;;;;;;;;;;-146.25;73.87;51966.75;2063337;28;19937;-70
2023/06/12 01:21:01;;;;;;;;;;;;;;;-146.25;74.14;51942.44;2064078;28;20780;-70
2023/06/12 01:22:08;;;;;;;;;;;;;;;-146.25;74.67;51964.72;2063242;28;19985;-70
2023/06/12 01:23:36;;;;;;;;;;;;;;;-146.25;74.72;51962.69;2064230;28;19922;-70
2023/06/12 01:25:07;;;;;;;;;;;;;;;-146.25;74.72;52019.47;2068352;28;20068;-70
2023/06/12 01:26:33;;;;;;;;;;;;;;;-146.25;74.63;51982.97;2047043;28;19934;-70
2023/06/12 01:28:04;;;;;;;;;;;;;;;-146.25;75.72;51958.66;2043342;28;20186;-70
2023/06/12 01:29:29;;;;;;;;;;;;;;;-146.25;75.98;51976.88;2067469;28;21239;-70
2023/06/12 01:31:08;;;;;;;;;;;;;;;-146.25;75.85;51970.81;2056498;28;20841;-70
2023/06/12 01:32:16;;;;;;;;;;;;;;;-146.25;76.21;51982.97;2062459;28;20591;-70
2023/06/12 01:33:30;;;;;;;;;;;;;;;-146.25;76.42;51954.59;2063523;28;19922;-70
2023/06/12 01:34:50;;;;;;;;;;;;;;;-146.25;76.70;51962.69;2063292;28;19922;-70
2023/06/12 01:35:54;;;;;;;;;;;;;;;-146.25;76.35;51954.59;2063385;28;20810;-69
2023/06/12 01:37:05;;;;;;;;;;;;;;;-146.25;77.08;51976.88;2063534;28;19922;-70
2023/06/12 01:38:13;;;;;;;;;;;;;;;-146.25;76.68;51993.09;2063840;28;19922;-70
2023/06/12 01:39:16;;;;;;;;;;;;;;;-146.25;77.28;51964.72;2063465;28;19921;-70
2023/06/12 01:40:19;;;;;;;;;;;;;;;-146.25;76.68;51978.91;2063486;28;19933;-70
2023/06/12 01:41:27;;;;;;;;;;;;;;;-146.25;77.30;51972.84;2063589;28;20077;-70
2023/06/12 01:42:33;;;;;;;;;;;;;;;-146.25;77.62;51952.56;2063834;28;19993;-70
2023/06/12 01:43:36;;;;;;;;;;;;;;;-146.25;77.57;52011.34;2063497;28;20128;-70
2023/06/12 01:44:38;;;;;;;;;;;;;;;-146.25;77.20;51966.75;2062860;28;25311;-70
2023/06/12 01:45:40;;;;;;;;;;;;;;;-146.25;78.11;51968.78;2062725;28;39645;-70
2023/06/12 01:46:42;;;;;;;;;;;;;;;-146.25;77.59;51946.47;2063174;28;20073;-69
2023/06/12 01:47:44;;;;;;;;;;;;;;;-146.25;78.04;51985.00;2055445;28;19923;-71
2023/06/12 01:48:46;;;;;;;;;;;;;;;-146.25;78.41;51938.38;2063118;28;19987;-69
2023/06/12 01:49:48;;;;;;;;;;;;;;;-146.25;77.96;51946.47;2056028;28;23509;-70
2023/06/12 01:50:49;;;;;;;;;;;;;;;-146.25;78.43;51946.47;2055021;28;19926;-70
2023/06/12 01:51:51;;;;;;;;;;;;;;;-146.25;79.17;51956.63;2055906;28;19922;-70
2023/06/12 01:52:53;;;;;;;;;;;;;;;-146.25;78.56;51968.78;2063845;28;19921;-70
2023/06/12 01:53:55;;;;;;;;;;;;;;;-146.25;78.84;52007.31;2064923;28;19926;-70
2023/06/12 01:54:58;;;;;;;;;;;;;;;-146.25;79.95;51976.88;2056685;28;20902;-70
2023/06/12 01:56:00;;;;;;;;;;;;;;;-146.25;79.67;51966.75;2058345;28;19926;-71
2023/06/12 01:57:02;;;;;;;;;;;;;;;-146.25;79.71;52011.34;2056863;28;19930;-70
2023/06/12 01:58:08;;;;;;;;;;;;;;;-146.25;79.91;51950.53;2062506;28;19953;-70
2023/06/12 01:59:38;;;;;;;;;;;;;;;-146.25;80.42;51974.88;2056903;28;19977;-70
2023/06/12 02:00:40;;;;;;;;;;;;;;;-146.25;80.27;51982.97;2063475;28;19922;-70
2023/06/12 02:01:43;;;;;;;;;;;;;;;-146.25;80.08;51978.91;2072563;28;20068;-70
2023/06/12 02:02:46;;;;;;;;;;;;;;;-146.25;80.60;51954.59;2072956;28;19921;-70
2023/06/12 02:03:53;;;;;;;;;;;;;;;-146.25;80.59;51974.88;2064737;28;19914;-71
2023/06/12 02:04:56;;;;;;;;;;;;;;;-146.25;79.65;52003.25;2064871;28;19918;-70
2023/06/12 02:05:58;;;;;;;;;;;;;;;-146.25;81.52;51995.13;2065352;28;19996;-71
2023/06/12 02:07:00;;;;;;;;;;;;;;;-146.25;81.36;51991.09;2065607;28;19922;-70
2023/06/12 02:08:03;;;;;;;;;;;;;;;-146.25;81.04;51978.91;2072577;28;20008;-71
2023/06/12 02:09:05;;;;;;;;;;;;;;;-146.25;80.86;51985.00;2064872;28;19910;-69
2023/06/12 02:10:07;;;;;;;;;;;;;;;-146.25;81.57;51987.03;2064704;28;20759;-71
2023/06/12 02:11:10;;;;;;;;;;;;;;;-146.25;81.58;52013.38;2056731;28;20869;-69
2023/06/12 02:12:11;;;;;;;;;;;;;;;-146.25;83.01;51954.59;2059748;28;20889;-69
2023/06/12 02:13:13;;;;;;;;;;;;;;;-146.25;81.58;51980.94;2067076;28;20054;-70
2023/06/12 02:14:15;;;;;;;;;;;;;;;-146.25;81.96;51954.59;2064045;28;24344;-70
2023/06/12 02:15:18;;;;;;;;;;;;;;;-146.25;81.91;51980.94;2056239;28;19927;-69
2023/06/12 02:16:21;;;;;;;;;;;;;;;-146.25;82.17;51972.84;2064348;28;20893;-70
2023/06/12 02:17:24;;;;;;;;;;;;;;;-146.25;82.85;51962.69;2064802;28;19930;-70
2023/06/12 02:18:28;;;;;;;;;;;;;;;-146.25;83.35;52011.34;2064615;28;21277;-70
2023/06/12 02:19:32;;;;;;;;;;;;;;;-146.25;84.04;51964.72;2064298;28;20795;-71
2023/06/12 02:20:34;;;;;;;;;;;;;;;-146.25;84.10;51974.88;2063054;28;20825;-69
2023/06/12 02:21:35;;;;;;;;;;;;;;;-146.25;83.88;51985.00;2072780;28;20079;-72
2023/06/12 02:22:37;;;;;;;;;;;;;;;-146.25;83.67;51980.94;2064435;28;19922;-72
2023/06/12 02:23:39;;;;;;;;;;;;;;;-146.25;83.54;52033.66;2056644;28;20673;-69
2023/06/12 02:24:41;;;;;;;;;;;;;;;-146.25;84.47;51956.63;2055919;28;19941;-70
2023/06/12 02:25:43;;;;;;;;;;;;;;;-146.25;84.32;51956.63;2064621;28;20753;-70
2023/06/12 02:26:45;;;;;;;;;;;;;;;-146.25;84.73;51999.19;2056844;28;19981;-70
2023/06/12 02:27:48;;;;;;;;;;;;;;;-146.25;84.42;52009.31;2056950;28;20021;-70
2023/06/12 02:29:08;;;;;;;;;;;;;;;-146.25;84.78;51987.03;2064434;28;19922;-70
2023/06/12 02:30:15;;;;;;;;;;;;;;;-146.25;84.52;51960.66;2067307;28;19921;-70
2023/06/12 02:31:16;;;;;;;;;;;;;;;-146.25;84.89;51964.72;2072613;28;19987;-70
2023/06/12 02:32:18;;;;;;;;;;;;;;;-146.25;84.27;51982.97;2072254;28;19929;-70
2023/06/12 02:33:22;;;;;;;;;;;;;;;-146.25;85.22;51995.13;2064013;28;19920;-70
2023/06/12 02:34:23;;;;;;;;;;;;;;;-146.25;85.28;51989.06;2064290;28;20731;-70
2023/06/12 02:35:25;;;;;;;;;;;;;;;-146.25;85.19;51964.72;2072735;28;19925;-70
2023/06/12 02:36:28;;;;;;;;;;;;;;;-146.25;85.02;51958.66;2072065;28;24411;-70
2023/06/12 02:37:31;;;;;;;;;;;;;;;-146.25;85.74;51995.13;2064317;28;20048;-70
2023/06/12 02:38:34;;;;;;;;;;;;;;;-146.25;85.94;51995.13;2064209;28;19914;-70
2023/06/12 02:39:36;;;;;;;;;;;;;;;-146.25;85.54;52001.22;2072065;28;21300;-70
2023/06/12 02:40:40;;;;;;;;;;;;;;;-146.25;85.56;51970.81;2064225;28;19922;-70
2023/06/12 02:41:43;;;;;;;;;;;;;;;-146.25;85.68;51980.94;2064655;28;20889;-70
2023/06/12 02:42:45;;;;;;;;;;;;;;;-146.25;85.20;51976.88;2064408;28;21448;-70
2023/06/12 02:43:48;;;;;;;;;;;;;;;-146.25;85.49;52001.22;2064577;28;19918;-70
2023/06/12 02:44:50;;;;;;;;;;;;;;;-146.25;86.18;52007.31;2064560;28;19922;-70
2023/06/12 02:45:53;;;;;;;;;;;;;;;-146.25;86.71;52035.69;2065362;28;19958;-70
2023/06/12 02:47:00;;;;;;;;;;;;;;;-146.25;86.67;51974.88;2072676;28;19921;-70
2023/06/12 02:48:08;;;;;;;;;;;;;;;-146.25;86.87;51982.97;2064688;28;19925;-70
2023/06/12 02:49:12;;;;;;;;;;;;;;;-146.25;86.79;51991.09;2064685;28;19930;-70
2023/06/12 02:50:14;;;;;;;;;;;;;;;-146.25;86.23;51999.19;2064378;28;19965;-70
2023/06/12 02:51:23;;;;;;;;;;;;;;;-146.25;86.57;51995.13;2064302;28;19929;-70
2023/06/12 02:52:26;;;;;;;;;;;;;;;-146.25;87.10;51987.03;2056536;28;19969;-70
2023/06/12 02:53:28;;;;;;;;;;;;;;;-146.25;87.39;51980.94;2056465;28;19973;-70
2023/06/12 02:54:30;;;;;;;;;;;;;;;-146.25;88.19;51974.88;2064555;28;24512;-71
2023/06/12 02:55:39;;;;;;;;;;;;;;;-146.25;88.38;51999.19;2065005;28;20004;-70
2023/06/12 02:56:45;;;;;;;;;;;;;;;-146.25;88.27;51974.88;2064306;28;20881;-71
2023/06/12 02:57:46;;;;;;;;;;;;;;;-146.25;88.32;52035.69;2056323;28;20024;-70
2023/06/12 02:58:48;;;;;;;;;;;;;;;-146.25;87.88;51966.75;2056232;28;19926;-71
2023/06/12 02:59:50;;;;;;;;;;;;;;;-146.25;87.39;52015.41;2057099;28;19930;-69
2023/06/12 03:01:04;;;;;;;;;;;;;;;-146.25;87.68;52015.41;2064235;28;19921;-71
2023/06/12 03:02:05;;;;;;;;;;;;;;;-146.25;88.13;51970.81;2064088;28;20854;-71
2023/06/12 03:03:17;;;;;;;;;;;;;;;-146.25;87.68;52003.25;2056420;28;19915;-71
2023/06/12 03:04:19;;;;;;;;;;;;;;;-146.25;87.94;52029.59;2059877;28;22419;-71
2023/06/12 03:05:25;;;;;;;;;;;;;;;-146.25;88.26;51982.97;2064125;28;20881;-71
2023/06/12 03:06:31;;;;;;;;;;;;;;;-146.25;88.70;51997.16;2058302;28;19929;-71
2023/06/12 03:07:36;;;;;;;;;;;;;;;-146.25;88.15;52015.41;2056048;28;19934;-70
2023/06/12 03:08:40;;;;;;;;;;;;;;;-146.25;88.11;51997.16;2064683;28;19925;-71
2023/06/12 03:09:48;;;;;;;;;;;;;;;-146.25;88.50;51985.00;2064822;28;20066;-71
2023/06/12 03:10:50;;;;;;;;;;;;;;;-146.25;87.93;52011.34;2072182;28;33495;-71
2023/06/12 03:11:53;;;;;;;;;;;;;;;-146.25;88.46;51989.06;2064018;28;22783;-70
2023/06/12 03:12:55;;;;;;;;;;;;;;;-146.25;87.73;51978.91;2063724;28;24152;-71
2023/06/12 03:13:57;;;;;;;;;;;;;;;-146.25;88.01;51995.13;2057568;28;19983;-69
2023/06/12 03:15:00;;;;;;;;;;;;;;;-146.25;88.09;52017.44;2064461;28;19926;-72
2023/06/12 03:16:04;;;;;;;;;;;;;;;-146.25;87.68;51966.75;2064570;28;19934;-72
2023/06/12 03:17:09;;;;;;;;;;;;;;;-146.25;88.05;52023.53;2072331;28;20003;-70
2023/06/12 03:18:13;;;;;;;;;;;;;;;-146.25;89.06;51978.91;2064390;28;19930;-70
2023/06/12 03:19:17;;;;;;;;;;;;;;;-146.25;89.81;52019.47;2064123;28;20137;-70
2023/06/12 03:20:19;;;;;;;;;;;;;;;-146.25;88.48;52003.25;2068568;28;20691;-69
2023/06/12 03:21:21;;;;;;;;;;;;;;;-146.25;88.74;52021.50;2064400;28;20063;-70
2023/06/12 03:22:22;;;;;;;;;;;;;;;-146.25;88.67;51995.13;2055710;28;20000;-70
2023/06/12 03:23:24;;;;;;;;;;;;;;;-146.25;88.38;52017.44;2064293;28;28018;-71
2023/06/12 03:24:29;;;;;;;;;;;;;;;-146.25;88.66;52013.38;2061536;28;20025;-70
2023/06/12 03:25:32;;;;;;;;;;;;;;;-146.25;89.88;52001.22;2065083;28;20159;-69
2023/06/12 03:26:33;;;;;;;;;;;;;;;-146.25;89.01;52015.41;2072104;28;19922;-70
2023/06/12 03:27:36;;;;;;;;;;;;;;;-146.25;89.12;52003.25;2056352;28;19972;-70
2023/06/12 03:28:38;;;;;;;;;;;;;;;-146.25;88.16;52007.31;2056914;28;19926;-69
2023/06/12 03:29:40;;;;;;;;;;;;;;;-146.25;88.01;52033.66;2064455;28;19925;-70
2023/06/12 03:30:42;;;;;;;;;;;;;;;-146.25;87.78;52001.22;2063872;28;20343;-69
2023/06/12 03:31:46;;;;;;;;;;;;;;;-146.25;87.51;51987.03;2064181;28;20694;-70
2023/06/12 03:32:48;;;;;;;;;;;;;;;-146.25;87.38;52015.41;2056465;28;20075;-70
2023/06/12 03:33:51;;;;;;;;;;;;;;;-146.25;86.83;52031.63;2055961;28;20057;-70
2023/06/12 03:34:52;;;;;;;;;;;;;;;-146.25;86.05;52011.34;2056139;28;20834;-70
2023/06/12 03:35:54;;;;;;;;;;;;;;;-146.25;86.96;52013.38;2056929;28;19938;-70
2023/06/12 03:36:56;;;;;;;;;;;;;;;-146.25;85.82;52031.63;2063682;28;19976;-70
2023/06/12 03:38:00;;;;;;;;;;;;;;;-146.25;85.73;51999.19;2064633;28;19980;-70
2023/06/12 03:39:03;;;;;;;;;;;;;;;-146.25;86.44;52035.69;2072525;28;19925;-70
2023/06/12 03:40:05;;;;;;;;;;;;;;;-146.25;86.16;51985.00;2064612;28;30484;-70
2023/06/12 03:41:10;;;;;;;;;;;;;;;-146.25;85.75;52011.34;2072349;28;19933;-70
2023/06/12 03:42:12;;;;;;;;;;;;;;;-146.25;85.94;51962.69;2064014;28;19922;-71
2023/06/12 03:43:29;;;;;;;;;;;;;;;-146.25;85.73;51997.16;2066293;28;20884;-70
2023/06/12 03:44:31;;;;;;;;;;;;;;;-146.25;85.64;51999.19;2072485;28;19996;-69
2023/06/12 03:45:34;;;;;;;;;;;;;;;-146.25;85.77;52021.50;2063867;28;19918;-69
2023/06/12 03:46:36;;;;;;;;;;;;;;;-146.25;85.35;51991.09;2064168;28;19981;-69
2023/06/12 03:47:38;;;;;;;;;;;;;;;-146.25;85.40;52015.41;2063660;28;20779;-69
2023/06/12 03:48:41;;;;;;;;;;;;;;;-146.25;86.27;51972.84;2064333;28;19922;-70
2023/06/12 03:49:43;;;;;;;;;;;;;;;-146.25;85.50;51993.09;2071223;28;25249;-69
2023/06/12 03:50:47;;;;;;;;;;;;;;;-146.25;85.78;51995.13;2063842;28;19925;-70
2023/06/12 03:51:49;;;;;;;;;;;;;;;-146.25;85.96;52003.25;2063399;28;32272;-69
2023/06/12 03:52:51;;;;;;;;;;;;;;;-146.25;85.90;51995.13;2064387;28;19989;-69
2023/06/12 03:53:54;;;;;;;;;;;;;;;-146.25;85.38;51997.16;2072565;28;19999;-69
2023/06/12 03:54:56;;;;;;;;;;;;;;;-146.25;85.20;51997.16;2064107;28;20220;-69
2023/06/12 03:55:58;;;;;;;;;;;;;;;-146.25;85.20;52009.31;2063551;28;19929;-70
2023/06/12 03:57:01;;;;;;;;;;;;;;;-146.25;84.66;52003.25;2064384;28;19922;-69
2023/06/12 03:58:03;;;;;;;;;;;;;;;-146.25;84.17;52031.63;2063675;28;19969;-69
2023/06/12 03:59:07;;;;;;;;;;;;;;;-146.25;83.16;52047.84;2072587;28;20067;-69
2023/06/12 04:00:09;;;;;;;;;;;;;;;-146.25;82.79;52011.34;2071621;28;30600;-69
2023/06/12 04:01:18;;;;;;;;;;;;;;;-146.25;82.10;52005.28;2070947;28;19929;-69
2023/06/12 04:02:20;;;;;;;;;;;;;;;-146.25;79.70;51974.88;2064565;28;19988;-69
2023/06/12 04:03:24;;;;;;;;;;;;;;;-146.25;77.46;52041.75;2064070;28;20056;-69
2023/06/12 04:04:27;;;;;;;;;;;;;;;-146.25;75.79;52003.25;2055674;28;20810;-69
2023/06/12 04:05:30;;;;;;;;;;;;;;;-146.25;74.00;51989.06;2056239;28;20943;-69
2023/06/12 04:06:32;;;;;;;;;;;;;;;-146.25;72.41;51999.19;2069910;28;19922;-69
2023/06/12 04:07:38;;;;;;;;;;;;;;;-146.25;71.44;52007.31;2064153;28;19929;-69
2023/06/12 04:08:39;;;;;;;;;;;;;;;-146.25;70.51;52005.28;2064224;28;20696;-69
2023/06/12 04:09:44;;;;;;;;;;;;;;;-146.25;68.30;52045.81;2065083;28;19922;-69
2023/06/12 04:10:45;;;;;;;;;;;;;;;-146.25;66.10;52015.41;2064655;28;19992;-70
2023/06/12 04:11:47;;;;;;;;;;;;;;;-146.25;63.59;51958.66;2063715;28;20004;-69
2023/06/12 04:12:49;;;;;;;;;;;;;;;-146.25;63.20;52035.69;2055933;28;19923;-69
2023/06/12 04:13:51;;;;;;;;;;;;;;;-146.25;60.21;51999.19;2063236;28;19930;-69
2023/06/12 04:14:55;;;;;;;;;;;;;;;-146.25;58.17;52009.31;2063337;28;28979;-69
2023/06/12 04:15:57;;;;;;;;;;;;;;;-146.25;57.55;51987.03;2064327;28;20021;-69
2023/06/12 04:16:59;;;;;;;;;;;;;;;-146.25;55.50;51997.16;2063146;28;19926;-69
2023/06/12 04:18:02;;;;;;;;;;;;;;;-146.25;55.74;51974.88;2063891;28;19922;-69
2023/06/12 04:19:04;;;;;;;;;;;;;;;-146.25;53.40;51972.84;2063482;28;25533;-69
2023/06/12 04:20:09;;;;;;;;;;;;;;;-146.25;52.75;51978.91;2066802;28;19918;-69
2023/06/12 04:21:12;;;;;;;;;;;;;;;-146.25;53.67;51995.13;2063585;28;23963;-66
2023/06/12 04:22:15;;;;;;;;;;;;;;;-146.25;52.91;51976.88;2063086;28;26355;-69
2023/06/12 04:23:17;;;;;;;;;;;;;;;-146.25;49.48;51976.88;2064410;28;20716;-68
2023/06/12 04:24:19;;;;;;;;;;;;;;;-146.25;48.89;51991.09;2063153;28;37010;-68
2023/06/12 04:25:22;;;;;;;;;;;;;;;-146.25;47.82;51958.66;2063882;28;20991;-69
2023/06/12 04:26:26;;;;;;;;;;;;;;;-146.25;47.93;51991.09;2060758;28;23590;-69
2023/06/12 04:27:29;;;;;;;;;;;;;;;-146.25;47.47;51999.19;2063609;28;27594;-69
2023/06/12 04:28:32;;;;;;;;;;;;;;;-146.25;48.43;51995.13;2064014;28;19929;-69
2023/06/12 04:29:42;;;;;;;;;;;;;;;-146.25;47.97;52001.22;2063537;28;24742;-68
2023/06/12 04:30:45;;;;;;;;;;;;;;;-146.25;46.17;51987.03;2071868;28;19922;-69
2023/06/12 04:31:49;;;;;;;;;;;;;;;-146.25;44.98;51978.91;2063151;28;24477;-68
2023/06/12 04:32:53;;;;;;;;;;;;;;;-146.25;46.50;51930.25;2055573;28;25697;-68
2023/06/12 04:33:55;;;;;;;;;;;;;;;-146.25;43.94;52003.25;2064942;28;19929;-69
2023/06/12 04:34:56;;;;;;;;;;;;;;;-146.25;44.89;51972.84;2063425;28;22154;-69
2023/06/12 04:36:02;;;;;;;;;;;;;;;-146.25;43.05;51944.44;2061903;28;20053;-69
2023/06/12 04:37:08;;;;;;;;;;;;;;;-146.25;43.61;51962.69;2055284;28;20822;-68
2023/06/12 04:38:12;;;;;;;;;;;;;;;-146.25;41.93;51995.13;2059350;28;25505;-69
2023/06/12 04:39:14;;;;;;;;;;;;;;;-146.25;43.01;52017.44;2063602;28;19926;-69
2023/06/12 04:40:17;;;;;;;;;;;;;;;-146.25;42.78;51972.84;2063867;28;19918;-69
2023/06/12 04:41:24;;;;;;;;;;;;;;;-146.25;42.24;51987.03;2071896;28;20960;-69
2023/06/12 04:42:28;;;;;;;;;;;;;;;-146.25;42.48;51958.66;2071217;28;20064;-68
2023/06/12 04:43:29;;;;;;;;;;;;;;;-146.25;40.84;51970.81;2055820;28;20828;-68
2023/06/12 04:44:34;;;;;;;;;;;;;;;-146.25;41.78;51928.22;2063557;28;20054;-69
2023/06/12 04:45:36;;;;;;;;;;;;;;;-146.25;41.33;51966.75;2063605;28;23540;-68
2023/06/12 04:46:38;;;;;;;;;;;;;;;-146.25;40.59;51962.69;2063570;28;19925;-69
2023/06/12 04:47:40;;;;;;;;;;;;;;;-146.25;40.25;51938.38;2064356;28;19980;-69
2023/06/12 04:48:43;;;;;;;;;;;;;;;-146.25;40.32;51936.34;2070914;28;29830;-69
2023/06/12 04:49:47;;;;;;;;;;;;;;;-146.25;38.56;51966.75;2063071;28;30509;-68
2023/06/12 04:50:49;;;;;;;;;;;;;;;-146.25;39.93;51978.91;2063227;28;19922;-69
2023/06/12 04:51:51;;;;;;;;;;;;;;;-146.25;38.63;51960.66;2063975;28;20064;-68
2023/06/12 04:52:55;;;;;;;;;;;;;;;-146.25;39.70;51938.38;2063350;28;19926;-69
2023/06/12 04:54:01;;;;;;;;;;;;;;;-146.25;39.02;51976.88;2063371;28;25388;-69
2023/06/12 04:55:08;;;;;;;;;;;;;;;-146.25;38.10;51970.81;2063798;28;19930;-69
2023/06/12 04:56:10;;;;;;;;;;;;;;;-146.25;38.36;51962.69;2063600;28;20069;-69
2023/06/12 04:57:12;;;;;;;;;;;;;;;-146.25;37.61;51940.41;2063267;28;27390;-68
2023/06/12 04:58:15;;;;;;;;;;;;;;;-146.25;38.01;51952.56;2063519;28;20083;-69
2023/06/12 04:59:20;;;;;;;;;;;;;;;-146.25;38.63;51958.66;2063326;28;30019;-69
2023/06/12 05:00:22;;;;;;;;;;;;;;;-146.25;38.89;51940.41;2064153;28;20833;-69
2023/06/12 05:01:25;;;;;;;;;;;;;;;-146.25;39.18;51912.00;2064225;28;19926;-68
2023/06/12 05:02:28;;;;;;;;;;;;;;;-146.25;38.79;51946.47;2055202;28;19915;-68
2023/06/12 05:03:33;;;;;;;;;;;;;;;-146.25;37.99;51972.84;2055829;28;19922;-69
2023/06/12 05:04:36;;;;;;;;;;;;;;;-146.25;39.19;51954.59;2070064;28;19930;-68
2023/06/12 05:05:38;;;;;;;;;;;;;;;-146.25;38.15;51964.72;2063527;28;28712;-68
2023/06/12 05:06:43;;;;;;;;;;;;;;;-146.25;38.04;51956.63;2063528;28;20004;-68
2023/06/12 05:07:45;;;;;;;;;;;;;;;-146.25;38.35;51952.56;2063957;28;20962;-68
2023/06/12 05:08:47;;;;;;;;;;;;;;;-146.25;39.29;51962.69;2071542;28;20055;-68
2023/06/12 05:09:49;;;;;;;;;;;;;;;-146.25;38.77;51912.00;2063597;28;20731;-69
2023/06/12 05:10:51;;;;;;;;;;;;;;;-146.25;39.10;51960.66;2063530;28;19969;-69
2023/06/12 05:11:53;;;;;;;;;;;;;;;-146.25;37.56;51942.44;2064183;28;19918;-69
2023/06/12 05:12:54;;;;;;;;;;;;;;;-146.25;37.88;51910.00;2063233;28;19918;-69
2023/06/12 05:13:56;;;;;;;;;;;;;;;-146.25;38.64;51952.56;2056546;28;22538;-69
2023/06/12 05:14:59;;;;;;;;;;;;;;;-146.25;36.14;51936.34;2062963;28;20064;-69
2023/06/12 05:16:03;;;;;;;;;;;;;;;-146.25;34.93;51934.31;2057457;28;19978;-69
2023/06/12 05:17:05;;;;;;;;;;;;;;;-146.25;36.90;51954.59;2063311;28;19922;-68
2023/06/12 05:18:07;;;;;;;;;;;;;;;-146.25;35.59;51934.31;2063695;28;19930;-68
2023/06/12 05:19:10;;;;;;;;;;;;;;;-146.25;34.41;51914.03;2063027;28;20000;-69
2023/06/12 05:20:13;;;;;;;;;;;;;;;-146.25;34.02;51905.94;2063681;28;19922;-68
2023/06/12 05:21:15;;;;;;;;;;;;;;;-146.25;34.01;51899.84;2062904;28;29497;-69
2023/06/12 05:22:21;;;;;;;;;;;;;;;-146.25;34.20;51918.09;2060495;28;20806;-68
2023/06/12 05:23:23;;;;;;;;;;;;;;;-146.25;35.05;51940.41;2064419;28;20009;-69
2023/06/12 05:24:25;;;;;;;;;;;;;;;-146.25;35.06;51901.88;2063188;28;27308;-69
2023/06/12 05:25:27;;;;;;;;;;;;;;;-146.25;36.19;51936.34;2055320;28;20732;-68